createdAt,value
2022-08-19T00:02:09.711Z,20.54
2022-08-19T00:04:38.943Z,20.54
2022-08-19T00:07:09.446Z,20.43
2022-08-19T00:09:40.543Z,20.46
2022-08-19T00:12:10.879Z,20.43
2022-08-19T00:14:41.474Z,20.39
2022-08-19T00:17:11.369Z,20.37
2022-08-19T00:19:41.210Z,20.24
2022-08-19T00:22:10.985Z,20.22
2022-08-19T00:24:44.171Z,20.03
2022-08-19T00:27:26.312Z,20.16
2022-08-19T00:29:56.142Z,20.17
2022-08-19T00:32:25.833Z,20.12
2022-08-19T00:34:56.504Z,20.17
2022-08-19T00:37:27.252Z,20.20
2022-08-19T00:39:58.640Z,20.18
2022-08-19T00:42:28.878Z,20.18
2022-08-19T00:44:58.249Z,20.16
2022-08-19T00:47:27.611Z,20.11
2022-08-19T00:49:59.623Z,20.09
2022-08-19T00:52:32.453Z,20.11
2022-08-19T00:55:04.718Z,20.05
2022-08-19T00:57:39.344Z,19.99
2022-08-19T01:00:13.029Z,19.88
2022-08-19T01:02:44.044Z,19.83
2022-08-19T01:05:18.861Z,19.80
2022-08-19T01:07:49.002Z,19.76
2022-08-19T01:10:24.887Z,19.73
2022-08-19T01:12:55.441Z,19.66
2022-08-19T01:15:29.805Z,19.67
2022-08-19T01:18:02.803Z,19.58
2022-08-19T01:20:32.077Z,19.56
2022-08-19T01:23:03.318Z,19.58
2022-08-19T01:25:37.922Z,19.59
2022-08-19T01:28:10.585Z,19.51
2022-08-19T01:30:44.362Z,19.55
2022-08-19T01:33:14.163Z,19.52
2022-08-19T01:35:45.441Z,19.41
2022-08-19T01:38:24.685Z,19.46
2022-08-19T01:40:54.650Z,19.42
2022-08-19T01:43:25.392Z,19.42
2022-08-19T01:45:54.808Z,19.29
2022-08-19T01:48:24.229Z,19.38
2022-08-19T01:50:54.538Z,19.39
2022-08-19T01:53:26.648Z,19.41
2022-08-19T01:56:00.835Z,19.44
2022-08-19T01:58:36.965Z,19.47
2022-08-19T02:01:07.558Z,19.52
2022-08-19T02:03:37.651Z,19.46
2022-08-19T02:06:07.758Z,19.39
2022-08-19T02:08:41.657Z,19.34
2022-08-19T02:11:11.015Z,19.30
2022-08-19T02:13:40.146Z,19.33
2022-08-19T02:16:09.537Z,19.23
2022-08-19T02:18:38.651Z,19.21
2022-08-19T02:21:07.971Z,19.24
2022-08-19T02:23:39.311Z,19.21
2022-08-19T02:26:09.121Z,19.16
2022-08-19T02:28:38.467Z,19.17
2022-08-19T02:31:16.240Z,19.20
2022-08-19T02:33:47.020Z,19.11
2022-08-19T02:36:21.124Z,19.18
2022-08-19T02:38:54.983Z,19.08
2022-08-19T02:41:27.649Z,19.10
2022-08-19T02:44:30.205Z,19.18
2022-08-19T02:46:51.825Z,19.13
2022-08-19T02:49:22.225Z,19.17
2022-08-19T02:51:51.509Z,19.09
2022-08-19T02:54:22.818Z,19.19
2022-08-19T02:56:52.003Z,19.28
2022-08-19T02:59:23.114Z,19.09
2022-08-19T03:01:52.488Z,19.10
2022-08-19T03:04:23.835Z,19.01
2022-08-19T03:06:53.449Z,19.07
2022-08-19T03:09:24.906Z,18.97
2022-08-19T03:11:54.171Z,19.19
2022-08-19T03:14:23.817Z,19.15
2022-08-19T03:16:54.874Z,18.99
2022-08-19T03:19:24.155Z,19.07
2022-08-19T03:21:54.084Z,19.10
2022-08-19T03:24:26.665Z,19.12
2022-08-19T03:26:59.109Z,19.08
2022-08-19T03:29:31.772Z,19.15
2022-08-19T03:32:02.214Z,19.15
2022-08-19T03:34:36.484Z,19.17
2022-08-19T03:37:06.622Z,19.29
2022-08-19T03:39:40.308Z,19.16
2022-08-19T03:42:32.484Z,19.13
2022-08-19T03:44:59.149Z,19.24
2022-08-19T03:47:31.030Z,19.27
2022-08-19T03:50:00.369Z,19.35
2022-08-19T03:52:29.779Z,19.39
2022-08-19T03:55:01.045Z,19.46
2022-08-19T03:57:33.024Z,19.39
2022-08-19T04:00:04.129Z,19.47
2022-08-19T04:02:58.609Z,19.60
2022-08-19T04:05:31.564Z,19.66
2022-08-19T04:08:01.195Z,19.94
2022-08-19T04:10:32.528Z,20.01
2022-08-19T04:13:01.695Z,20.01
2022-08-19T04:15:34.145Z,20.15
2022-08-19T04:18:03.532Z,20.29
2022-08-19T04:20:33.005Z,20.42
2022-08-19T04:23:02.303Z,20.57
2022-08-19T04:25:38.631Z,20.71
2022-08-19T04:28:10.220Z,20.85
2022-08-19T04:30:42.921Z,21.09
2022-08-19T04:33:13.070Z,21.22
2022-08-19T04:35:44.877Z,21.28
2022-08-19T04:38:15.279Z,21.54
2022-08-19T04:41:01.429Z,21.69
2022-08-19T04:43:31.722Z,21.50
2022-08-19T04:46:01.674Z,21.40
2022-08-19T04:48:31.546Z,21.36
2022-08-19T04:51:08.471Z,21.25
2022-08-19T04:53:39.763Z,21.21
2022-08-19T04:56:13.042Z,21.23
2022-08-19T04:58:44.398Z,21.29
2022-08-19T05:01:19.892Z,21.24
2022-08-19T05:03:49.322Z,21.19
2022-08-19T05:06:21.381Z,21.23
2022-08-19T05:08:51.247Z,21.21
2022-08-19T05:11:26.668Z,21.24
2022-08-19T05:13:56.442Z,21.29
2022-08-19T05:16:27.185Z,21.28
2022-08-19T05:19:09.960Z,21.41
2022-08-19T05:21:52.814Z,21.49
2022-08-19T05:24:24.039Z,21.58
2022-08-19T05:26:57.227Z,21.62
2022-08-19T05:29:31.789Z,21.68
2022-08-19T05:32:09.360Z,21.87
2022-08-19T05:34:38.919Z,22.06
2022-08-19T05:37:09.386Z,22.19
2022-08-19T05:39:41.023Z,22.34
2022-08-19T05:42:14.913Z,22.33
2022-08-19T05:44:47.641Z,22.51
2022-08-19T05:47:20.118Z,22.66
2022-08-19T05:49:53.100Z,22.89
2022-08-19T05:52:25.832Z,22.95
2022-08-19T05:54:57.071Z,23.04
2022-08-19T05:57:29.352Z,23.11
2022-08-19T06:00:00.853Z,23.17
2022-08-19T06:02:32.171Z,23.35
2022-08-19T06:05:02.216Z,23.50
2022-08-19T06:07:32.240Z,23.61
2022-08-19T06:10:01.675Z,23.56
2022-08-19T06:12:36.376Z,23.48
2022-08-19T06:15:09.031Z,23.51
2022-08-19T06:17:38.549Z,23.52
2022-08-19T06:20:10.489Z,23.35
2022-08-19T06:22:42.058Z,23.35
2022-08-19T06:25:16.754Z,23.31
2022-08-19T06:28:13.400Z,23.43
2022-08-19T06:30:38.717Z,23.61
2022-08-19T06:33:08.079Z,23.50
2022-08-19T06:35:41.870Z,23.37
2022-08-19T06:38:13.899Z,23.27
2022-08-19T06:43:16.430Z,23.28
2022-08-19T06:45:48.385Z,23.32
2022-08-19T06:48:18.289Z,23.36
2022-08-19T06:50:48.056Z,23.48
2022-08-19T06:53:18.364Z,23.62
2022-08-19T06:55:48.129Z,23.67
2022-08-19T06:58:19.303Z,23.71
2022-08-19T07:00:49.363Z,23.84
2022-08-19T07:03:18.599Z,23.98
2022-08-19T07:05:49.371Z,24.00
2022-08-19T07:08:18.959Z,24.17
2022-08-19T07:10:49.750Z,24.36
2022-08-19T07:13:22.087Z,24.58
2022-08-19T07:15:52.198Z,24.58
2022-08-19T07:18:22.321Z,24.50
2022-08-19T07:20:51.566Z,24.61
2022-08-19T07:23:22.099Z,24.68
2022-08-19T07:25:53.371Z,24.77
2022-08-19T07:28:25.657Z,24.67
2022-08-19T07:30:57.047Z,24.51
2022-08-19T07:33:27.799Z,24.59
2022-08-19T07:35:57.245Z,24.64
2022-08-19T07:38:26.315Z,24.64
2022-08-19T07:40:56.418Z,24.73
2022-08-19T07:43:34.842Z,24.88
2022-08-19T07:46:04.503Z,24.93
2022-08-19T07:48:34.148Z,24.91
2022-08-19T07:51:05.851Z,24.88
2022-08-19T07:53:39.240Z,24.87
2022-08-19T07:56:09.874Z,24.82
2022-08-19T07:58:43.540Z,24.95
2022-08-19T08:01:16.170Z,25.13
2022-08-19T08:03:58.887Z,25.17
2022-08-19T08:06:41.963Z,25.16
2022-08-19T08:09:18.199Z,25.16
2022-08-19T08:11:51.406Z,25.16
2022-08-19T08:14:29.510Z,25.16
2022-08-19T08:17:05.156Z,25.18
2022-08-19T08:19:41.609Z,25.32
2022-08-19T08:22:31.639Z,25.63
2022-08-19T08:25:06.739Z,25.98
2022-08-19T08:27:40.051Z,25.99
2022-08-19T08:30:13.436Z,25.67
2022-08-19T08:32:43.513Z,25.64
2022-08-19T08:35:17.743Z,25.47
2022-08-19T08:37:48.569Z,25.31
2022-08-19T08:40:24.367Z,25.29
2022-08-19T08:45:55.662Z,25.59
2022-08-19T08:48:34.068Z,25.72
2022-08-19T08:51:07.874Z,25.59
2022-08-19T08:53:41.987Z,25.49
2022-08-19T08:56:14.166Z,25.25
2022-08-19T08:58:54.583Z,25.12
2022-08-19T09:01:30.160Z,25.10
2022-08-19T09:04:03.034Z,25.32
2022-08-19T09:06:43.542Z,25.46
2022-08-19T09:09:19.536Z,25.46
2022-08-19T09:11:59.501Z,25.62
2022-08-19T09:14:57.105Z,25.86
2022-08-19T09:17:34.242Z,25.99
2022-08-19T09:20:10.849Z,25.95
2022-08-19T09:22:43.369Z,26.05
2022-08-19T09:25:15.618Z,26.04
2022-08-19T09:27:45.730Z,25.97
2022-08-19T09:30:18.374Z,25.76
2022-08-19T09:32:53.035Z,25.55
2022-08-19T09:35:23.355Z,25.39
2022-08-19T09:37:57.638Z,25.56
2022-08-19T09:40:30.244Z,25.68
2022-08-19T09:43:02.975Z,25.72
2022-08-19T09:45:40.645Z,25.41
2022-08-19T09:48:11.958Z,25.45
2022-08-19T09:50:51.463Z,25.35
2022-08-19T09:53:25.591Z,25.31
2022-08-19T09:55:55.321Z,25.30
2022-08-19T09:58:28.191Z,25.37
2022-08-19T10:00:57.844Z,25.37
2022-08-19T10:03:30.925Z,25.36
2022-08-19T10:06:02.538Z,25.31
2022-08-19T10:08:33.454Z,25.49
2022-08-19T10:11:28.320Z,25.38
2022-08-19T10:13:53.738Z,25.29
2022-08-19T10:16:30.160Z,25.31
2022-08-19T10:19:03.690Z,25.38
2022-08-19T10:21:37.112Z,25.53
2022-08-19T10:24:09.472Z,25.53
2022-08-19T10:26:42.607Z,25.45
2022-08-19T10:29:12.568Z,25.43
2022-08-19T10:32:01.139Z,25.43
2022-08-19T10:34:34.235Z,25.42
2022-08-19T10:37:03.584Z,25.45
2022-08-19T10:39:43.040Z,25.39
2022-08-19T10:42:13.732Z,25.43
2022-08-19T10:44:42.939Z,25.54
2022-08-19T10:47:24.593Z,25.60
2022-08-19T10:50:14.492Z,25.64
2022-08-19T10:52:50.100Z,25.74
2022-08-19T10:55:34.639Z,25.68
2022-08-19T10:58:05.249Z,25.61
2022-08-19T11:00:34.625Z,25.57
2022-08-19T11:03:03.757Z,25.49
2022-08-19T11:05:36.595Z,25.61
2022-08-19T11:08:22.578Z,25.64
2022-08-19T11:10:59.745Z,25.70
2022-08-19T11:13:29.549Z,25.76
2022-08-19T11:16:07.302Z,25.85
2022-08-19T11:18:39.070Z,25.81
2022-08-19T11:21:12.346Z,25.86
2022-08-19T11:23:42.793Z,25.74
2022-08-19T11:26:12.102Z,25.76
2022-08-19T11:28:41.309Z,25.73
2022-08-19T11:31:14.486Z,25.72
2022-08-19T11:33:47.604Z,25.78
2022-08-19T11:36:21.098Z,25.88
2022-08-19T11:38:50.792Z,25.85
2022-08-19T11:41:23.512Z,25.87
2022-08-19T11:43:54.802Z,25.92
2022-08-19T11:46:25.192Z,25.95
2022-08-19T11:48:55.001Z,25.87
2022-08-19T11:51:27.409Z,25.88
2022-08-19T11:53:58.547Z,25.88
2022-08-19T11:56:28.979Z,26.00
2022-08-19T11:58:58.942Z,25.85
2022-08-19T12:01:29.482Z,25.94
2022-08-19T12:04:00.388Z,25.85
2022-08-19T12:06:34.889Z,25.99
2022-08-19T12:09:07.863Z,26.07
2022-08-19T12:11:37.489Z,26.21
2022-08-19T12:14:07.285Z,26.33
2022-08-19T12:16:39.806Z,26.30
2022-08-19T12:19:14.282Z,26.26
2022-08-19T12:21:55.983Z,26.24
2022-08-19T12:24:25.771Z,25.92
2022-08-19T12:26:55.953Z,26.11
2022-08-19T12:29:31.003Z,26.20
2022-08-19T12:32:04.677Z,26.19
2022-08-19T12:34:35.392Z,26.17
2022-08-19T12:37:08.927Z,26.19
2022-08-19T12:39:40.195Z,26.32
2022-08-19T12:42:09.678Z,26.44
2022-08-19T12:44:41.560Z,26.31
2022-08-19T12:47:13.136Z,26.30
2022-08-19T12:49:52.318Z,26.19
2022-08-19T12:57:24.490Z,26.01
2022-08-19T13:00:05.666Z,26.11
2022-08-19T13:02:38.485Z,26.25
2022-08-19T13:05:11.743Z,26.06
2022-08-19T13:07:44.376Z,26.12
2022-08-19T13:10:16.049Z,26.27
2022-08-19T13:12:48.475Z,26.31
2022-08-19T13:15:23.819Z,26.44
2022-08-19T13:17:56.236Z,26.40
2022-08-19T13:20:25.840Z,26.38
2022-08-19T13:22:57.852Z,26.35
2022-08-19T13:25:27.696Z,26.40
2022-08-19T13:27:59.120Z,26.39
2022-08-19T13:30:41.335Z,26.44
2022-08-19T13:33:16.062Z,26.60
2022-08-19T13:35:50.151Z,26.54
2022-08-19T13:38:22.216Z,26.58
2022-08-19T13:40:53.198Z,26.79
2022-08-19T13:43:26.329Z,26.77
2022-08-19T13:45:58.250Z,26.74
2022-08-19T13:48:29.009Z,26.77
2022-08-19T13:50:59.138Z,26.78
2022-08-19T13:53:28.433Z,26.77
2022-08-19T13:55:57.883Z,26.85
2022-08-19T13:58:29.207Z,26.83
2022-08-19T14:00:59.711Z,26.71
2022-08-19T14:03:28.977Z,26.84
2022-08-19T14:05:58.169Z,26.97
2022-08-19T14:08:28.434Z,27.06
2022-08-19T14:10:57.704Z,27.00
2022-08-19T14:13:28.871Z,26.97
2022-08-19T14:15:59.762Z,27.06
2022-08-19T14:18:29.458Z,26.74
2022-08-19T14:21:00.513Z,26.56
2022-08-19T14:23:29.753Z,26.45
2022-08-19T14:26:07.543Z,26.34
2022-08-19T14:28:39.287Z,26.14
2022-08-19T14:31:08.625Z,26.03
2022-08-19T14:33:41.065Z,26.02
2022-08-19T14:36:10.689Z,26.06
2022-08-19T14:38:41.163Z,26.03
2022-08-19T14:41:16.365Z,26.10
2022-08-19T14:43:49.064Z,26.03
2022-08-19T14:46:21.055Z,25.95
2022-08-19T14:48:52.680Z,25.94
2022-08-19T14:51:25.161Z,25.88
2022-08-19T14:53:54.356Z,25.82
2022-08-19T14:56:26.352Z,25.90
2022-08-19T14:59:01.555Z,25.95
2022-08-19T15:01:31.092Z,25.93
2022-08-19T15:04:00.313Z,25.85
2022-08-19T15:06:30.874Z,25.76
2022-08-19T15:09:05.585Z,25.53
2022-08-19T15:11:39.001Z,25.47
2022-08-19T15:14:10.784Z,25.35
2022-08-19T15:16:43.898Z,25.24
2022-08-19T15:19:13.229Z,25.21
2022-08-19T15:21:42.391Z,25.07
2022-08-19T15:24:11.936Z,24.98
2022-08-19T15:26:41.390Z,24.94
2022-08-19T15:29:13.566Z,24.80
2022-08-19T15:31:43.122Z,24.85
2022-08-19T15:34:12.507Z,24.79
2022-08-19T15:36:41.864Z,24.81
2022-08-19T15:39:11.762Z,24.83
2022-08-19T15:41:41.061Z,24.87
2022-08-19T15:44:18.229Z,24.90
2022-08-19T15:46:49.406Z,24.76
2022-08-19T15:49:20.250Z,24.76
2022-08-19T15:51:51.530Z,24.69
2022-08-19T15:54:23.388Z,24.77
2022-08-19T15:57:06.357Z,24.74
2022-08-19T15:59:52.144Z,24.69
2022-08-19T16:02:37.111Z,24.65
2022-08-19T16:05:22.360Z,24.60
2022-08-19T16:07:51.776Z,24.54
2022-08-19T16:10:26.298Z,24.46
2022-08-19T16:12:58.664Z,24.26
2022-08-19T16:15:33.288Z,24.32
2022-08-19T16:18:04.466Z,24.09
2022-08-19T16:20:35.722Z,24.05
2022-08-19T16:23:06.554Z,23.89
2022-08-19T16:25:36.062Z,24.01
2022-08-19T16:28:07.064Z,23.96
2022-08-19T16:30:42.966Z,23.96
2022-08-19T16:33:22.737Z,23.79
2022-08-19T16:36:00.114Z,23.56
2022-08-19T16:38:33.270Z,23.63
2022-08-19T16:41:03.436Z,23.49
2022-08-19T16:43:33.102Z,23.17
2022-08-19T16:46:04.202Z,23.21
2022-08-19T16:48:33.580Z,23.09
2022-08-19T16:51:09.012Z,22.94
2022-08-19T16:53:40.765Z,22.90
2022-08-19T16:56:11.470Z,22.83
2022-08-19T16:58:42.230Z,22.72
2022-08-19T17:01:14.147Z,22.58
2022-08-19T17:03:43.779Z,22.64
2022-08-19T17:06:20.911Z,22.68
2022-08-19T17:08:51.051Z,22.54
2022-08-19T17:11:21.010Z,22.48
2022-08-19T17:13:51.279Z,22.37
2022-08-19T17:16:26.353Z,22.31
2022-08-19T17:18:58.599Z,22.29
2022-08-19T17:21:31.466Z,22.24
2022-08-19T17:24:01.495Z,22.25
2022-08-19T17:26:32.196Z,22.14
2022-08-19T17:29:02.275Z,22.14
2022-08-19T17:31:34.629Z,22.20
2022-08-19T17:34:04.115Z,22.15
2022-08-19T17:36:34.802Z,22.00
2022-08-19T17:39:05.920Z,21.92
2022-08-19T17:41:35.952Z,21.98
2022-08-19T17:44:06.271Z,21.90
2022-08-19T17:46:38.239Z,21.86
2022-08-19T17:49:07.514Z,21.89
2022-08-19T17:51:42.853Z,21.87
2022-08-19T17:54:14.824Z,21.60
2022-08-19T17:56:46.156Z,21.75
2022-08-19T17:59:16.301Z,21.78
2022-08-19T18:01:53.259Z,21.72
2022-08-19T18:04:25.120Z,21.55
2022-08-19T18:06:56.214Z,21.70
2022-08-19T18:09:27.074Z,21.57
2022-08-19T18:11:59.274Z,21.52
2022-08-19T18:14:33.854Z,21.51
2022-08-19T18:17:10.631Z,21.45
2022-08-19T18:19:43.582Z,21.39
2022-08-19T18:22:36.254Z,21.42
2022-08-19T18:25:09.014Z,21.28
2022-08-19T18:27:38.398Z,21.17
2022-08-19T18:30:10.471Z,21.13
2022-08-19T18:32:42.076Z,21.05
2022-08-19T18:35:13.566Z,21.18
2022-08-19T18:37:44.290Z,20.91
2022-08-19T18:40:29.381Z,20.81
2022-08-19T18:43:11.801Z,20.83
2022-08-19T18:45:57.989Z,20.73
2022-08-19T18:48:42.342Z,20.66
2022-08-19T18:51:12.520Z,20.65
2022-08-19T18:53:42.922Z,20.57
2022-08-19T18:56:15.866Z,20.52
2022-08-19T18:58:50.022Z,20.47
2022-08-19T19:01:21.495Z,20.46
2022-08-19T19:03:54.945Z,20.49
2022-08-19T19:06:29.339Z,20.40
2022-08-19T19:09:00.151Z,20.41
2022-08-19T19:11:33.409Z,20.31
2022-08-19T19:14:04.414Z,20.26
2022-08-19T19:16:35.900Z,20.21
2022-08-19T19:19:13.121Z,20.18
2022-08-19T19:21:46.629Z,20.15
2022-08-19T19:24:19.782Z,20.04
2022-08-19T19:26:49.884Z,20.04
2022-08-19T19:29:23.102Z,20.02
2022-08-19T19:31:53.490Z,19.93
2022-08-19T19:34:29.887Z,19.93
2022-08-19T19:36:59.693Z,19.88
2022-08-19T19:39:30.648Z,19.72
2022-08-19T19:42:20.468Z,19.66
2022-08-19T19:44:51.449Z,19.71
2022-08-19T19:47:27.566Z,19.76
2022-08-19T19:50:15.912Z,19.72
2022-08-19T19:52:47.814Z,19.69
2022-08-19T19:55:20.445Z,19.54
2022-08-19T19:57:50.962Z,19.53
2022-08-19T20:00:21.017Z,19.48
2022-08-19T20:02:51.070Z,19.38
2022-08-19T20:05:23.468Z,19.41
2022-08-19T20:08:07.415Z,19.39
2022-08-19T20:10:37.214Z,19.28
2022-08-19T20:13:07.797Z,19.22
2022-08-19T20:15:42.609Z,19.24
2022-08-19T20:18:14.533Z,19.20
2022-08-19T20:20:49.973Z,19.13
2022-08-19T20:23:19.761Z,19.07
2022-08-19T20:25:49.086Z,18.94
2022-08-19T20:28:18.675Z,18.95
2022-08-19T20:30:49.021Z,18.90
2022-08-19T20:33:18.980Z,18.84
2022-08-19T20:35:49.988Z,18.88
2022-08-19T20:38:20.698Z,18.88
2022-08-19T20:40:51.235Z,18.90
2022-08-19T20:43:20.661Z,18.91
2022-08-19T20:45:49.995Z,18.93
2022-08-19T20:48:19.167Z,18.83
2022-08-19T20:50:51.510Z,18.78
2022-08-19T20:53:23.308Z,18.73
2022-08-19T20:55:52.645Z,18.83
2022-08-19T20:58:24.480Z,18.71
2022-08-19T21:00:56.797Z,18.64
2022-08-19T21:03:28.509Z,18.64
2022-08-19T21:06:00.623Z,18.65
2022-08-19T21:08:29.872Z,18.49
2022-08-19T21:10:59.823Z,18.54
2022-08-19T21:13:29.063Z,18.52
2022-08-19T21:15:58.196Z,18.51
2022-08-19T21:18:27.962Z,18.42
2022-08-19T21:20:59.448Z,18.43
2022-08-19T21:23:30.753Z,18.54
2022-08-19T21:26:01.658Z,18.44
2022-08-19T21:28:36.149Z,18.40
2022-08-19T21:31:10.009Z,18.37
2022-08-19T21:33:40.400Z,18.35
2022-08-19T21:36:12.053Z,18.33
2022-08-19T21:38:40.891Z,18.47
2022-08-19T21:41:10.265Z,18.43
2022-08-19T21:43:40.468Z,18.41
2022-08-19T21:46:09.699Z,18.37
2022-08-19T21:48:38.886Z,18.37
2022-08-19T21:51:08.436Z,18.31
2022-08-19T21:53:39.526Z,18.27
2022-08-19T21:56:09.401Z,18.20
2022-08-19T21:58:38.684Z,18.15
2022-08-19T22:01:08.367Z,18.06
2022-08-19T22:03:39.945Z,18.02
2022-08-19T22:06:09.082Z,18.10
2022-08-19T22:08:44.394Z,17.96
2022-08-19T22:11:13.643Z,17.95
2022-08-19T22:13:43.035Z,17.87
2022-08-19T22:16:13.667Z,17.76
2022-08-19T22:18:44.028Z,17.76
2022-08-19T22:21:13.321Z,17.70
2022-08-19T22:23:44.538Z,17.60
2022-08-19T22:26:14.672Z,17.61
2022-08-19T22:28:46.472Z,17.61
2022-08-19T22:31:17.968Z,17.62
2022-08-19T22:33:47.441Z,17.57
2022-08-19T22:36:17.089Z,17.60
2022-08-19T22:38:48.706Z,17.58
2022-08-19T22:41:17.996Z,17.58
2022-08-19T22:43:49.882Z,17.62
2022-08-19T22:46:19.218Z,17.62
2022-08-19T22:48:56.729Z,17.64
2022-08-19T22:51:43.785Z,17.64
2022-08-19T22:54:14.910Z,17.59
2022-08-19T22:56:44.824Z,17.50
2022-08-19T22:59:13.993Z,17.38
2022-08-19T23:01:43.438Z,17.24
2022-08-19T23:04:12.996Z,17.22
2022-08-19T23:06:44.234Z,17.16
2022-08-19T23:09:16.816Z,17.20
2022-08-19T23:11:46.648Z,17.17
2022-08-19T23:14:17.210Z,17.11
2022-08-19T23:16:51.233Z,17.11
2022-08-19T23:19:22.367Z,17.02
2022-08-19T23:21:52.167Z,17.03
2022-08-19T23:24:23.515Z,17.01
2022-08-19T23:27:05.839Z,16.99
2022-08-19T23:29:48.932Z,16.99
2022-08-19T23:32:19.094Z,16.97
2022-08-19T23:34:48.800Z,16.93
2022-08-19T23:37:17.976Z,16.91
2022-08-19T23:39:49.029Z,16.94
2022-08-19T23:42:18.224Z,16.96
2022-08-19T23:44:51.311Z,16.92
2022-08-19T23:47:22.995Z,16.93
2022-08-19T23:49:52.387Z,16.90
2022-08-19T23:52:21.940Z,16.89
2022-08-19T23:54:53.127Z,16.83
2022-08-19T23:57:22.637Z,16.85
2022-08-19T23:59:51.763Z,16.74
